createdAt,value
2019-03-17T00:00:49.435Z,96617.41
2019-03-17T00:03:16.336Z,96618.45
2019-03-17T00:05:43.265Z,96614.00
2019-03-17T00:08:10.174Z,96612.95
2019-03-17T00:10:37.107Z,96617.41
2019-03-17T00:13:04.046Z,96611.91
2019-03-17T00:15:30.978Z,96609.29
2019-03-17T00:17:57.908Z,96611.64
2019-03-17T00:20:24.821Z,96627.60
2019-03-17T00:22:51.775Z,96600.13
2019-03-17T00:25:18.727Z,96605.62
2019-03-17T00:27:45.659Z,96605.09
2019-03-17T00:30:12.681Z,96596.20
2019-03-17T00:32:39.678Z,96608.77
2019-03-17T00:35:06.569Z,96596.20
2019-03-17T00:37:33.550Z,96597.52
2019-03-17T00:40:00.534Z,96596.73
2019-03-17T00:42:27.391Z,96588.09
2019-03-17T00:44:54.394Z,96592.02
2019-03-17T00:47:21.328Z,96587.56
2019-03-17T00:49:48.326Z,96588.09
2019-03-17T00:52:15.395Z,96581.02
2019-03-17T00:54:42.508Z,96576.58
2019-03-17T00:57:28.610Z,96568.73
2019-03-17T00:59:55.569Z,96569.25
2019-03-17T01:02:22.678Z,96567.68
2019-03-17T01:04:56.256Z,96566.11
2019-03-17T01:07:18.223Z,96560.88
2019-03-17T01:09:45.173Z,96564.02
2019-03-17T01:12:12.179Z,96555.37
2019-03-17T01:14:39.096Z,96556.69
2019-03-17T01:17:06.052Z,96559.05
2019-03-17T01:19:33.034Z,96554.33
2019-03-17T01:21:59.947Z,96548.83
2019-03-17T01:24:26.893Z,96556.69
2019-03-17T01:26:53.794Z,96551.19
2019-03-17T01:29:20.703Z,96551.45
2019-03-17T01:31:47.646Z,96547.53
2019-03-17T01:34:14.622Z,96543.08
2019-03-17T01:36:41.492Z,96549.63
2019-03-17T01:39:08.463Z,96542.81
2019-03-17T01:41:35.390Z,96542.55
2019-03-17T01:44:02.302Z,96542.30
2019-03-17T01:46:29.241Z,96546.22
2019-03-17T01:48:56.179Z,96537.06
2019-03-17T01:51:23.097Z,96543.08
2019-03-17T01:53:50.009Z,96533.66
2019-03-17T01:56:16.925Z,96527.38
2019-03-17T01:58:43.856Z,96524.77
2019-03-17T02:01:12.023Z,96525.28
2019-03-17T02:03:39.117Z,96522.14
2019-03-17T02:06:06.126Z,96519.27
2019-03-17T02:08:33.047Z,96518.48
2019-03-17T02:10:59.985Z,96509.32
2019-03-17T02:13:26.928Z,96511.94
2019-03-17T02:15:53.879Z,96502.78
2019-03-17T02:18:20.787Z,96501.47
2019-03-17T02:20:47.750Z,96510.11
2019-03-17T02:23:14.679Z,96519.53
2019-03-17T02:25:41.606Z,96509.58
2019-03-17T02:28:08.516Z,96502.78
2019-03-17T02:30:35.453Z,96498.86
2019-03-17T02:33:02.371Z,96496.50
2019-03-17T02:35:38.693Z,96491.52
2019-03-17T02:37:57.918Z,96492.31
2019-03-17T02:40:24.838Z,96484.46
2019-03-17T02:42:51.934Z,96486.30
2019-03-17T02:45:18.843Z,96487.08
2019-03-17T02:47:45.793Z,96490.48
2019-03-17T02:50:12.772Z,96489.17
2019-03-17T02:52:39.711Z,96493.62
2019-03-17T02:55:06.646Z,96490.22
2019-03-17T02:57:33.577Z,96492.31
2019-03-17T03:00:00.841Z,96494.92
2019-03-17T03:02:27.824Z,96496.23
2019-03-17T03:04:54.729Z,96492.05
2019-03-17T03:07:21.692Z,96487.59
2019-03-17T03:09:48.605Z,96486.30
2019-03-17T03:12:15.661Z,96480.53
2019-03-17T03:14:42.601Z,96480.53
2019-03-17T03:17:09.581Z,96481.32
2019-03-17T03:19:36.461Z,96478.96
2019-03-17T03:22:03.459Z,96480.53
2019-03-17T03:24:30.376Z,96475.83
2019-03-17T03:26:57.280Z,96473.21
2019-03-17T03:29:27.197Z,96465.36
2019-03-17T03:31:52.839Z,96473.47
2019-03-17T03:34:19.786Z,96469.02
2019-03-17T03:36:46.757Z,96466.41
2019-03-17T03:39:13.672Z,96459.34
2019-03-17T03:41:40.576Z,96457.25
2019-03-17T03:44:07.514Z,96465.36
2019-03-17T03:46:34.422Z,96467.19
2019-03-17T03:49:01.344Z,96468.50
2019-03-17T03:51:28.259Z,96477.66
2019-03-17T03:53:55.435Z,96479.23
2019-03-17T03:56:22.540Z,96478.44
2019-03-17T03:58:49.456Z,96474.25
2019-03-17T04:01:16.366Z,96477.13
2019-03-17T04:03:43.299Z,96471.90
2019-03-17T04:06:25.292Z,96465.88
2019-03-17T04:08:38.825Z,96475.04
2019-03-17T04:11:05.800Z,96472.42
2019-03-17T04:13:32.708Z,96474.00
2019-03-17T04:15:59.726Z,96480.80
2019-03-17T04:18:26.723Z,96469.02
2019-03-17T04:20:53.623Z,96470.33
2019-03-17T04:23:20.598Z,96471.11
2019-03-17T04:25:47.541Z,96467.98
2019-03-17T04:28:14.485Z,96472.42
2019-03-17T04:30:41.410Z,96473.21
2019-03-17T04:33:08.462Z,96464.05
2019-03-17T04:35:35.380Z,96463.79
2019-03-17T04:38:02.389Z,96456.72
2019-03-17T04:40:29.349Z,96453.32
2019-03-17T04:42:56.324Z,96452.53
2019-03-17T04:45:23.254Z,96445.47
2019-03-17T04:47:50.183Z,96443.90
2019-03-17T04:50:17.132Z,96448.87
2019-03-17T04:52:44.146Z,96445.47
2019-03-17T04:55:11.152Z,96447.30
2019-03-17T04:57:38.161Z,96446.26
2019-03-17T05:00:05.129Z,96447.56
2019-03-17T05:02:32.049Z,96443.90
2019-03-17T05:04:58.969Z,96444.16
2019-03-17T05:07:25.871Z,96440.76
2019-03-17T05:09:52.782Z,96446.78
2019-03-17T05:12:19.757Z,96449.39
2019-03-17T05:14:46.713Z,96446.78
2019-03-17T05:17:13.649Z,96447.56
2019-03-17T05:19:40.576Z,96445.99
2019-03-17T05:22:07.544Z,96442.59
2019-03-17T05:24:34.512Z,96444.16
2019-03-17T05:27:01.440Z,96437.36
2019-03-17T05:29:28.394Z,96434.22
2019-03-17T05:31:55.323Z,96436.05
2019-03-17T05:34:22.315Z,96441.81
2019-03-17T05:36:49.305Z,96437.62
2019-03-17T05:39:16.279Z,96433.70
2019-03-17T05:41:43.132Z,96429.51
2019-03-17T05:44:10.064Z,96427.41
2019-03-17T05:46:37.036Z,96421.14
2019-03-17T05:49:03.965Z,96422.18
2019-03-17T05:51:30.930Z,96422.18
2019-03-17T05:53:57.856Z,96414.33
2019-03-17T05:56:24.789Z,96417.21
2019-03-17T05:58:51.706Z,96406.48
2019-03-17T06:01:18.661Z,96401.25
2019-03-17T06:03:45.601Z,96404.66
2019-03-17T06:06:12.516Z,96402.56
2019-03-17T06:08:39.447Z,96399.94
2019-03-17T06:11:06.381Z,96395.23
2019-03-17T06:13:33.322Z,96392.88
2019-03-17T06:16:00.265Z,96392.88
2019-03-17T06:18:27.314Z,96397.33
2019-03-17T06:20:54.251Z,96388.43
2019-03-17T06:23:21.160Z,96390.26
2019-03-17T06:25:48.075Z,96385.55
2019-03-17T06:28:15.013Z,96398.63
2019-03-17T06:30:41.936Z,96394.71
2019-03-17T06:33:08.861Z,96322.89
2019-03-17T06:35:35.788Z,96382.41
2019-03-17T06:38:02.770Z,96395.49
2019-03-17T06:40:29.676Z,96397.33
2019-03-17T06:42:56.588Z,96375.61
2019-03-17T06:45:23.542Z,96380.84
2019-03-17T06:47:50.463Z,96381.33
2019-03-17T06:50:17.383Z,96381.33
2019-03-17T06:52:44.312Z,96389.19
2019-03-17T06:55:11.251Z,96390.00
2019-03-17T06:57:38.160Z,96383.45
2019-03-17T07:00:05.101Z,96376.10
2019-03-17T07:02:32.226Z,96382.15
2019-03-17T07:04:59.187Z,96384.77
2019-03-17T07:07:26.125Z,96387.87
2019-03-17T07:09:53.044Z,96387.09
2019-03-17T07:12:20.137Z,96403.58
2019-03-17T07:14:47.082Z,96389.19
2019-03-17T07:17:14.037Z,96396.54
2019-03-17T07:19:40.956Z,96399.94
2019-03-17T07:22:07.889Z,96405.70
2019-03-17T07:24:34.846Z,96398.63
2019-03-17T07:27:01.780Z,96400.96
2019-03-17T07:29:28.720Z,96399.16
2019-03-17T07:31:55.731Z,96399.16
2019-03-17T07:34:22.588Z,96403.58
2019-03-17T07:36:49.563Z,96397.55
2019-03-17T07:39:16.495Z,96400.96
2019-03-17T07:41:44.220Z,96397.84
2019-03-17T07:44:11.190Z,96399.16
2019-03-17T07:46:38.084Z,96386.86
2019-03-17T07:49:05.036Z,96383.95
2019-03-17T07:51:31.964Z,96393.63
2019-03-17T07:53:58.877Z,96389.19
2019-03-17T07:56:25.917Z,96393.63
2019-03-17T07:58:52.832Z,96384.25
2019-03-17T08:01:19.779Z,96383.45
2019-03-17T08:03:46.695Z,96383.72
2019-03-17T08:06:13.669Z,96390.78
2019-03-17T08:08:40.661Z,96378.30
2019-03-17T08:11:07.688Z,96381.07
2019-03-17T08:13:34.617Z,96383.08
2019-03-17T08:16:01.526Z,96389.03
2019-03-17T08:18:28.460Z,96389.15
2019-03-17T08:20:55.444Z,96378.16
2019-03-17T08:23:22.357Z,96385.20
2019-03-17T08:25:49.371Z,96386.78
2019-03-17T08:28:16.281Z,96381.27
2019-03-17T08:30:52.428Z,96374.86
2019-03-17T08:33:11.745Z,96382.64
2019-03-17T08:35:38.681Z,96377.94
2019-03-17T08:38:05.589Z,96372.25
2019-03-17T08:40:32.496Z,96360.22
2019-03-17T08:42:59.481Z,96365.12
2019-03-17T08:45:26.382Z,96370.05
2019-03-17T08:47:58.312Z,96358.98
2019-03-17T08:50:21.854Z,96357.95
2019-03-17T08:52:48.762Z,96364.19
2019-03-17T08:55:15.703Z,96364.48
2019-03-17T08:57:42.612Z,96365.94
2019-03-17T09:00:09.556Z,96369.44
2019-03-17T09:02:36.539Z,96365.88
2019-03-17T09:05:03.454Z,96362.77
2019-03-17T09:07:30.478Z,96356.01
2019-03-17T09:09:57.423Z,96357.42
2019-03-17T09:12:24.368Z,96354.44
2019-03-17T09:14:51.284Z,96359.53
2019-03-17T09:17:18.193Z,96357.17
2019-03-17T09:19:45.113Z,96352.75
2019-03-17T09:22:12.018Z,96349.95
2019-03-17T09:24:38.934Z,96343.03
2019-03-17T09:27:05.866Z,96344.63
2019-03-17T09:29:32.776Z,96346.77
2019-03-17T09:31:59.684Z,96350.05
2019-03-17T09:34:26.593Z,96353.72
2019-03-17T09:36:53.569Z,96348.77
2019-03-17T09:39:20.425Z,96341.81
2019-03-17T09:41:47.431Z,96341.81
2019-03-17T09:44:14.320Z,96356.88
2019-03-17T09:46:41.226Z,96333.78
2019-03-17T09:49:08.321Z,96336.86
2019-03-17T09:51:35.223Z,96329.28
2019-03-17T09:54:02.193Z,96323.02
2019-03-17T09:56:29.159Z,96318.88
2019-03-17T09:58:56.188Z,96316.01
2019-03-17T10:01:23.127Z,96316.28
2019-03-17T10:03:50.182Z,96318.89
2019-03-17T10:06:17.111Z,96318.38
2019-03-17T10:08:44.040Z,96315.77
2019-03-17T10:11:11.115Z,96317.94
2019-03-17T10:13:38.025Z,96311.94
2019-03-17T10:16:05.516Z,96303.05
2019-03-17T10:18:32.425Z,96307.03
2019-03-17T10:20:59.336Z,96300.24
2019-03-17T10:23:26.245Z,96311.20
2019-03-17T10:25:53.475Z,96300.74
2019-03-17T10:28:20.433Z,96291.86
2019-03-17T10:30:47.390Z,96290.83
2019-03-17T10:33:14.343Z,96307.30
2019-03-17T10:35:44.338Z,96281.16
2019-03-17T10:38:11.515Z,96276.98
2019-03-17T10:40:38.837Z,96278.29
2019-03-17T10:43:05.946Z,96272.55
2019-03-17T10:45:33.136Z,96272.02
2019-03-17T10:48:00.167Z,96278.03
2019-03-17T10:50:27.239Z,96267.88
2019-03-17T10:52:54.169Z,96270.75
2019-03-17T10:55:21.097Z,96275.97
2019-03-17T10:57:48.039Z,96271.80
2019-03-17T11:00:15.224Z,96261.60
2019-03-17T11:02:42.366Z,96258.73
2019-03-17T11:05:09.526Z,96255.59
2019-03-17T11:07:36.770Z,96255.59
2019-03-17T11:10:03.881Z,96252.98
2019-03-17T11:12:31.004Z,96250.63
2019-03-17T11:14:58.036Z,96266.05
2019-03-17T11:17:24.962Z,96257.43
2019-03-17T11:19:51.883Z,96257.95
2019-03-17T11:22:18.858Z,96250.37
2019-03-17T11:24:45.766Z,96261.61
2019-03-17T11:27:12.748Z,96263.21
2019-03-17T11:29:39.684Z,96261.91
2019-03-17T11:32:06.857Z,96260.08
2019-03-17T11:34:33.757Z,96259.06
2019-03-17T11:37:00.761Z,96252.78
2019-03-17T11:39:37.334Z,96245.20
2019-03-17T11:41:56.315Z,96261.41
2019-03-17T11:44:23.226Z,96276.58
2019-03-17T11:46:50.323Z,96246.78
2019-03-17T11:49:17.247Z,96242.59
2019-03-17T11:51:44.166Z,96239.72
2019-03-17T11:54:11.084Z,96230.05
2019-03-17T11:56:38.022Z,96223.52
2019-03-17T11:59:04.936Z,96219.07
2019-03-17T12:01:31.914Z,96213.84
2019-03-17T12:03:58.820Z,96219.36
2019-03-17T12:06:25.791Z,96213.34
2019-03-17T12:08:52.722Z,96220.95
2019-03-17T12:11:19.638Z,96206.30
2019-03-17T12:13:46.562Z,96199.50
2019-03-17T12:16:13.481Z,96208.13
2019-03-17T12:18:40.394Z,96201.07
2019-03-17T12:21:07.320Z,96198.72
2019-03-17T12:23:34.241Z,96185.64
2019-03-17T12:26:01.259Z,96203.70
2019-03-17T12:28:28.157Z,96210.25
2019-03-17T12:30:55.177Z,96196.38
2019-03-17T12:33:22.117Z,96192.46
2019-03-17T12:35:49.048Z,96192.46
2019-03-17T12:38:15.960Z,96197.17
2019-03-17T12:40:42.880Z,96184.62
2019-03-17T12:43:09.820Z,96186.70
2019-03-17T12:45:36.816Z,96157.94
2019-03-17T12:48:03.729Z,96174.16
2019-03-17T12:50:30.652Z,96161.61
2019-03-17T12:52:57.557Z,96157.16
2019-03-17T12:55:24.466Z,96158.47
2019-03-17T12:57:51.392Z,96173.89
2019-03-17T13:00:18.301Z,96187.49
2019-03-17T13:02:45.245Z,96200.03
2019-03-17T13:05:12.153Z,96180.95
2019-03-17T13:07:39.070Z,96168.13
2019-03-17T13:10:14.877Z,96144.06
2019-03-17T13:12:34.535Z,96132.55
2019-03-17T13:15:01.471Z,96129.41
2019-03-17T13:17:28.475Z,96117.64
2019-03-17T13:19:55.395Z,96139.86
2019-03-17T13:22:22.301Z,96149.28
2019-03-17T13:24:49.213Z,96144.31
2019-03-17T13:27:16.124Z,96130.98
2019-03-17T13:29:43.053Z,96123.13
2019-03-17T13:32:09.966Z,96129.15
2019-03-17T13:34:36.885Z,96124.44
2019-03-17T13:37:03.798Z,96117.38
2019-03-17T13:39:30.808Z,96145.11
2019-03-17T13:41:57.716Z,96109.02
2019-03-17T13:44:24.625Z,96123.40
2019-03-17T13:46:51.537Z,96142.49
2019-03-17T13:49:18.524Z,96155.05
2019-03-17T13:51:45.479Z,96149.55
2019-03-17T13:54:12.386Z,96119.99
2019-03-17T13:56:39.301Z,96112.67
2019-03-17T13:59:06.584Z,96118.69
2019-03-17T14:01:33.722Z,96135.95
2019-03-17T14:04:00.649Z,96138.56
2019-03-17T14:06:27.561Z,96148.77
2019-03-17T14:08:54.473Z,96139.34
2019-03-17T14:11:21.381Z,96150.08
2019-03-17T14:13:48.301Z,96167.34
2019-03-17T14:16:15.863Z,96157.66
2019-03-17T14:18:42.917Z,96161.06
2019-03-17T14:21:09.826Z,96164.98
2019-03-17T14:23:36.757Z,96174.14
2019-03-17T14:26:03.660Z,96173.36
2019-03-17T14:28:30.620Z,96167.08
2019-03-17T14:30:57.533Z,96180.16
2019-03-17T14:33:24.445Z,96178.59
2019-03-17T14:35:51.361Z,96176.77
2019-03-17T14:38:18.265Z,96169.97
2019-03-17T14:40:53.354Z,96155.05
2019-03-17T14:43:13.739Z,96141.97
2019-03-17T14:45:40.655Z,96148.52
2019-03-17T14:48:07.564Z,96133.88
2019-03-17T14:50:34.502Z,96152.18
2019-03-17T14:53:01.413Z,96156.89
2019-03-17T14:55:28.344Z,96163.42
2019-03-17T14:57:55.257Z,96157.94
2019-03-17T15:00:22.194Z,96170.23
2019-03-17T15:02:49.084Z,96191.42
2019-03-17T15:05:16.027Z,96174.94
2019-03-17T15:07:42.924Z,96181.48
2019-03-17T15:10:09.831Z,96199.78
2019-03-17T15:12:36.753Z,96179.64
2019-03-17T15:15:03.673Z,96191.16
2019-03-17T15:17:30.972Z,96162.88
2019-03-17T15:19:57.835Z,96168.64
2019-03-17T15:22:24.759Z,96160.53
2019-03-17T15:24:51.663Z,96175.95
2019-03-17T15:27:18.583Z,96163.41
2019-03-17T15:29:45.500Z,96170.73
2019-03-17T15:32:12.422Z,96187.23
2019-03-17T15:34:39.323Z,96210.25
2019-03-17T15:37:06.240Z,96197.17
2019-03-17T15:39:33.158Z,96211.56
2019-03-17T15:42:00.076Z,96208.42
2019-03-17T15:44:26.997Z,96231.17
2019-03-17T15:46:53.960Z,96233.50
2019-03-17T15:49:20.876Z,96254.72
2019-03-17T15:51:47.789Z,96262.83
2019-03-17T15:54:14.705Z,96282.45
2019-03-17T15:56:41.618Z,96303.38
2019-03-17T15:59:08.563Z,96334.24
2019-03-17T16:01:35.461Z,96329.02
2019-03-17T16:04:02.360Z,96340.78
2019-03-17T16:06:29.306Z,96342.35
2019-03-17T16:08:56.221Z,96357.27
2019-03-17T16:11:30.969Z,96371.91
2019-03-17T16:13:51.698Z,96394.67
2019-03-17T16:16:18.613Z,96418.73
2019-03-17T16:18:45.527Z,96442.28
2019-03-17T16:21:12.432Z,96443.85
2019-03-17T16:23:39.355Z,96450.13
2019-03-17T16:26:06.252Z,96454.31
2019-03-17T16:28:33.179Z,96497.48
2019-03-17T16:31:00.112Z,96538.81
2019-03-17T16:33:27.026Z,96472.64
2019-03-17T16:35:53.931Z,96534.63
2019-03-17T16:38:20.840Z,96552.94
2019-03-17T16:40:47.762Z,96569.42
2019-03-17T16:43:14.671Z,96554.77
2019-03-17T16:45:41.602Z,96572.04
2019-03-17T16:48:08.514Z,96583.55
2019-03-17T16:50:35.414Z,96595.85
2019-03-17T16:53:02.360Z,96601.34
2019-03-17T16:55:29.278Z,96622.80
2019-03-17T16:57:56.202Z,96622.02
2019-03-17T17:00:23.106Z,96619.91
2019-03-17T17:02:50.028Z,96625.15
2019-03-17T17:05:16.927Z,96635.61
2019-03-17T17:07:43.831Z,96654.72
2019-03-17T17:10:10.782Z,96669.63
2019-03-17T17:12:37.693Z,96679.30
2019-03-17T17:15:04.595Z,96682.70
2019-03-17T17:17:31.499Z,96682.44
2019-03-17T17:19:58.418Z,96685.05
2019-03-17T17:22:25.316Z,96686.36
2019-03-17T17:24:52.290Z,96678.26
2019-03-17T17:27:20.682Z,96676.70
2019-03-17T17:29:47.767Z,96673.30
2019-03-17T17:32:14.677Z,96671.20
2019-03-17T17:34:41.620Z,96670.41
2019-03-17T17:37:08.520Z,96673.03
2019-03-17T17:39:35.529Z,96678.26
2019-03-17T17:42:08.769Z,96684.80
2019-03-17T17:44:30.997Z,96700.23
2019-03-17T17:46:58.333Z,96690.55
2019-03-17T17:49:25.336Z,96695.78
2019-03-17T17:51:52.263Z,96695.78
2019-03-17T17:54:19.220Z,96698.41
2019-03-17T17:56:46.130Z,96716.20
2019-03-17T17:59:13.041Z,96714.89
2019-03-17T18:01:39.959Z,96697.61
2019-03-17T18:04:06.873Z,96695.00
2019-03-17T18:06:33.834Z,96694.48
2019-03-17T18:09:00.825Z,96694.48
2019-03-17T18:11:28.728Z,96701.54
2019-03-17T18:13:55.945Z,96697.09
2019-03-17T18:16:22.998Z,96710.97
2019-03-17T18:18:49.937Z,96653.87
2019-03-17T18:21:16.851Z,96716.72
2019-03-17T18:23:43.757Z,96713.84
2019-03-17T18:26:10.668Z,96720.39
2019-03-17T18:28:37.578Z,96718.81
2019-03-17T18:31:04.509Z,96737.91
2019-03-17T18:33:31.468Z,96746.55
2019-03-17T18:35:58.399Z,96766.44
2019-03-17T18:38:25.301Z,96770.89
2019-03-17T18:40:52.245Z,96787.89
2019-03-17T18:43:19.159Z,96779.52
2019-03-17T18:45:46.064Z,96786.31
2019-03-17T18:48:13.073Z,96802.02
2019-03-17T18:50:39.989Z,96821.12
2019-03-17T18:53:06.900Z,96832.89
2019-03-17T18:55:33.832Z,96842.31
2019-03-17T18:58:00.761Z,96842.56
2019-03-17T19:00:27.761Z,96842.86
2019-03-17T19:02:55.708Z,96847.34
2019-03-17T19:05:22.657Z,96852.33
2019-03-17T19:07:49.568Z,96857.28
2019-03-17T19:10:34.086Z,96858.94
2019-03-17T19:13:03.753Z,96876.75
2019-03-17T19:15:28.093Z,96882.22
2019-03-17T19:17:55.194Z,96887.97
2019-03-17T19:20:22.306Z,96898.19
2019-03-17T19:22:49.244Z,96901.84
2019-03-17T19:25:16.227Z,96917.00
2019-03-17T19:27:43.175Z,96907.33
2019-03-17T19:30:10.089Z,96915.43
2019-03-17T19:32:37.015Z,96918.23
2019-03-17T19:35:03.921Z,96788.34
2019-03-17T19:37:30.833Z,96925.65
2019-03-17T19:39:57.740Z,96937.72
2019-03-17T19:42:24.703Z,96945.59
2019-03-17T19:44:51.608Z,96954.48
2019-03-17T19:47:18.549Z,96958.88
2019-03-17T19:49:45.477Z,96954.63
2019-03-17T19:52:12.512Z,96964.83
2019-03-17T19:54:39.451Z,96970.83
2019-03-17T19:57:06.417Z,96975.81
2019-03-17T19:59:33.390Z,96976.05
2019-03-17T20:02:00.359Z,96978.42
2019-03-17T20:04:32.312Z,96978.42
2019-03-17T20:06:55.876Z,96985.22
2019-03-17T20:09:22.807Z,96996.20
2019-03-17T20:11:49.791Z,97002.22
2019-03-17T20:14:16.726Z,96998.55
2019-03-17T20:16:43.665Z,97005.36
2019-03-17T20:19:10.623Z,97009.28
2019-03-17T20:21:37.541Z,97012.14
2019-03-17T20:24:04.563Z,97004.05
2019-03-17T20:26:31.483Z,97009.01
2019-03-17T20:28:58.430Z,97015.55
2019-03-17T20:31:25.387Z,97014.77
2019-03-17T20:33:52.391Z,97023.41
2019-03-17T20:36:19.447Z,97030.46
2019-03-17T20:38:46.486Z,97019.20
2019-03-17T20:41:13.424Z,97012.66
2019-03-17T20:43:40.385Z,97028.36
2019-03-17T20:46:07.300Z,97030.46
2019-03-17T20:48:34.319Z,97030.19
2019-03-17T20:51:01.263Z,97037.00
2019-03-17T20:53:28.252Z,97036.21
2019-03-17T20:55:55.262Z,97041.45
2019-03-17T20:58:22.170Z,97034.38
2019-03-17T21:00:49.202Z,97030.19
2019-03-17T21:03:16.102Z,97049.30
2019-03-17T21:05:43.032Z,97038.03
2019-03-17T21:08:10.116Z,97050.33
2019-03-17T21:10:37.122Z,97056.88
2019-03-17T21:13:04.047Z,97051.64
2019-03-17T21:15:30.969Z,97050.84
2019-03-17T21:17:57.910Z,97057.39
2019-03-17T21:20:24.853Z,97068.92
2019-03-17T21:22:51.772Z,97062.89
2019-03-17T21:25:18.701Z,97058.18
2019-03-17T21:27:45.671Z,97056.59
2019-03-17T21:30:12.619Z,97052.95
2019-03-17T21:32:39.539Z,97057.91
2019-03-17T21:35:06.449Z,97059.22
2019-03-17T21:37:33.484Z,97070.47
2019-03-17T21:40:00.429Z,97089.30
2019-03-17T21:42:27.314Z,97070.20
2019-03-17T21:44:54.215Z,97080.66
2019-03-17T21:47:21.181Z,97081.19
2019-03-17T21:49:48.132Z,97078.84
2019-03-17T21:52:15.227Z,97083.55
2019-03-17T21:54:42.364Z,97090.34
2019-03-17T21:57:09.314Z,97085.38
2019-03-17T21:59:36.302Z,97085.90
2019-03-17T22:02:12.380Z,97085.90
2019-03-17T22:04:31.896Z,97082.48
2019-03-17T22:06:58.962Z,97083.80
2019-03-17T22:09:25.927Z,97079.88
2019-03-17T22:11:52.803Z,97089.03
2019-03-17T22:14:19.738Z,97098.46
2019-03-17T22:16:46.700Z,97106.04
2019-03-17T22:19:13.641Z,97099.50
2019-03-17T22:21:40.606Z,97099.50
2019-03-17T22:24:07.527Z,97106.04
2019-03-17T22:26:34.459Z,97115.20
2019-03-17T22:29:01.430Z,97128.28
2019-03-17T22:31:28.465Z,97133.52
2019-03-17T22:33:55.483Z,97120.95
2019-03-17T22:36:22.373Z,97182.44
2019-03-17T22:38:49.279Z,97128.52
2019-03-17T22:41:16.208Z,97141.88
2019-03-17T22:43:43.266Z,97143.19
2019-03-17T22:46:10.254Z,97150.25
2019-03-17T22:48:37.170Z,97161.50
2019-03-17T22:51:04.117Z,97160.72
2019-03-17T22:53:31.022Z,97162.81
2019-03-17T22:55:58.038Z,97168.84
2019-03-17T22:58:24.990Z,97174.59
2019-03-17T23:00:51.912Z,97177.20
2019-03-17T23:03:18.890Z,97181.37
2019-03-17T23:05:45.876Z,97191.32
2019-03-17T23:08:12.758Z,97193.42
2019-03-17T23:10:39.702Z,97196.55
2019-03-17T23:13:06.600Z,97195.24
2019-03-17T23:15:35.827Z,97192.11
2019-03-17T23:18:02.124Z,97193.42
2019-03-17T23:20:29.084Z,97188.40
2019-03-17T23:22:56.030Z,97190.02
2019-03-17T23:25:23.045Z,97199.96
2019-03-17T23:27:49.966Z,97189.50
2019-03-17T23:30:16.863Z,97190.80
2019-03-17T23:32:43.831Z,97195.80
2019-03-17T23:35:10.806Z,97193.42
2019-03-17T23:37:37.806Z,97060.18
2019-03-17T23:40:04.862Z,97202.85
2019-03-17T23:42:31.752Z,97206.78
2019-03-17T23:44:58.680Z,97207.56
2019-03-17T23:47:25.605Z,97209.91
2019-03-17T23:49:52.738Z,97208.33
2019-03-17T23:52:19.710Z,97212.02
2019-03-17T23:54:46.846Z,97209.91
2019-03-17T23:57:13.813Z,97215.94
2019-03-17T23:59:40.838Z,97217.24
